Worst METAR reports worldwide for Flight Simulation

Highest temperatures

Station Wind Gust Vis(SM) Temp/Dew Baro
DAUI 4 6.21 43/8 29.70
DAUI 111800Z 05004KT CAVOK 43/08 Q1006
DAOF 8 6.21 42/5 29.76
DAOF 111800Z 15008KT CAVOK 42/05 Q1008
DAUA 4 6.21 42/6 29.73
DAUA 111800Z 06004KT CAVOK 42/06 Q1007
DAUZ 3 4.97 42/2 29.82
DAUZ 111800Z 02003KT 330V040 8000 FEW040 42/02 Q1010
KEED 14 20 10 42/4 29.84
KEED 111856Z AUTO 20014G20KT 10SM FEW110 42/04 A2984 RMK AO2 SLP063 T04220044

Station Wind Gust Vis(SM) Temp/Dew Baro
DAAP 7 4.97 41/5 29.79
DAAP 111800Z 34007KT 8000 SCT040 41/05 Q1009
KIFP 8 10 41/7 29.82
KIFP 111849Z 18008KT 10SM SCT130 41/07 A2982
KHII 8 15 10 40/6 29.84
KHII 111855Z AUTO 14008G15KT 10SM CLR 40/06 A2984 RMK AO2
KNJK 0 10 39/17 29.82
KNJK 111756Z 00000KT 10SM FEW150 39/17 A2982 RMK SLP112 T03940172 10394 20250 50002
DAOI 11 4.97 39/7 29.73
DAOI 111800Z 35011KT 8000 NSC 39/07 Q1007
HEBL 6 6.21 39/9 29.76
HEBL 111800Z 03006KT CAVOK 39/09 Q1008 NOSIG
MMML 9 10 39/18 29.81
MMML 111844Z 09009KT 10SM SKC 39/18 A2981 RMK AC W
KGYR 9 10 39/18 29.91
KGYR 111847Z 26009KT 10SM FEW170 39/18 A2991
KVGT 9 15 10 39/1 29.89
KVGT 111853Z 12009G15KT 10SM CLR 39/01 A2989 RMK AO2 SLP102 T03940011
KL08 7 10 39/6 29.83
KL08 111855Z AUTO 13007KT 110V180 10SM CLR 39/06 A2983 RMK AO2
KGXF 4 10 39/15 29.84
KGXF 111858Z AUTO 28004KT 10SM CLR 40/15 A2984 RMK AO2 SLP089 T03960152
DAAD 10 6.21 38/8 29.88
DAAD 111800Z 21010KT 9999 FEW030 SCT200 38/08 Q1012
DAUU 10 6.21 38/4 29.85
DAUU 111800Z 06010KT CAVOK 38/04 Q1011
OEYN 14 6.21 38/13 29.59
OEYN 111800Z 30014KT CAVOK 38/13 Q1002 NOSIG
SBAF 4 6.21 38/11 29.94
SBAF 111800Z 34004KT CAVOK 38/11 Q1014
OIAW 6 6.21 38/12 29.44
OIAW 111830Z 27006KT CAVOK 38/12 Q0997
KA39 5 10 38/10 29.94
KA39 111835Z AUTO 30005KT 10SM SCT080 BKN090 BKN120 38/10 A2994 RMK AO2
MMHO 4 10 38/20 29.89
MMHO 111840Z 21004KT 10SM FEW100 FEW200 38/20 A2989 RMK 8/038 HZY
KCHD 4 10 38/8 29.90
KCHD 111847Z 28004KT 10SM FEW200 38/08 A2990
KATT 10 38/19 29.98
KATT 111851Z AUTO 10SM CLR 38/19 A2998 RMK AO2 SLP132 T03830194 $
KELP 8 10 38/7 30.01
KELP 111851Z 33008KT 300V030 10SM FEW120 FEW250 38/08 A3001 RMK AO2 SLP073 CB DSNT NE TCU DSNT E T03830078
KPHX 0 10 38/12 29.87
KPHX 111851Z 00000KT 10SM FEW100 FEW160 FEW180 38/13 A2987 RMK AO2 SLP090 T03830128
KDMN 9 10 38/-2 30.07
KDMN 111853Z AUTO 04009KT 10SM CLR 38/M03 A3007 RMK AO2 SLP084 T03831028
KIPL 8 10 38/17 29.79
KIPL 111853Z AUTO 09008KT 10SM CLR 39/17 A2979 RMK AO2 SLP087 T03890172
KFFZ 7 10 38/10 29.90
KFFZ 111854Z 27007KT 10SM CLR 38/10 A2990 RMK AO2 SLP095 T03830100
KBVU 12 20 10 38/3 29.91
KBVU 111855Z AUTO 15012G20KT 10SM CLR 38/03 A2991 RMK AO2
KBXK 4 10 38/15 29.89
KBXK 111855Z AUTO VRB04KT 10SM 38/15 A2989 RMK A01
KIWA 0 10 38/10 29.91
KIWA 111855Z 00000KT 10SM FEW200 38/10 A2991
KCGZ 8 10 38/14 29.91
KCGZ 111856Z AUTO 25008KT 10SM CLR 38/14 A2991 RMK AO2 SLP107 T03830144
KHND 7 15 10 38/1 29.94
KHND 111856Z 18007G15KT 160V220 10SM CLR 38/01 A2994 RMK AO2 SLP118 T03830011
KNYL 9 7 38/18 29.81
KNYL 111857Z 21009KT 7SM FEW120 39/19 A2981 RMK AO2 SLP090 T03890189 $
KLSV 8 10 38/-1 29.87
KLSV 111858Z AUTO 13008KT 10SM CLR 39/M01 A2987 RMK AO2 SLP086 T03871015 $
OKBK 16 6.21 38/10 29.53
OKBK 111900Z 32016KT CAVOK 38/10 Q1000 NOSIG
KQAJ 11 6.21 37/4
KQAJ 111755Z 30011KT 9999 CLR 37/04 RMK SLPNO WND DATA ESTMD 10440 20002 $
KLUF 8 10 37/17 29.89
KLUF 111758Z 23008KT 10SM CLR 37/17 A2989 RMK AO2A SLP106 T03710171 10372 20281 50000
KNOZ 8 10 37/20 29.84
KNOZ 111759Z AUTO 17008KT 10SM CLR 38/20 A2984 RMK AO2 SLP053 T03780200 10383 20294 50003
DAOR 10 6.21 37/2 29.97
DAOR 111800Z 21010KT CAVOK 37/02 Q1015
DAUB 3 6.21 37/13 29.88
DAUB 111800Z 14003KT CAVOK 37/13 Q1012
DAUO 9 6.21 37/15 29.85
DAUO 111800Z 27009KT CAVOK 37/15 Q1011
DTTR 15 37/14 29.88
DTTR 111800Z AUTO 05015KT NCD 37/14 Q1012
GMFK 11 6.21 37/1 29.97
GMFK 111800Z 19011KT 9999 SCT033 FEW040CB SCT080 37/01 Q1015 NOSIG
GOSP 2 6.21 37/24 29.73
GOSP 111800Z 28002KT 9999 SCT013 SCT130 37/24 Q1007
OESH 6 6.21 37/6 29.73
OESH 111800Z 02006KT 9999 SCT040 37/06 Q1007 NOSIG
OEWD 6 6.21 37/8 29.70
OEWD 111800Z 33006KT CAVOK 37/08 Q1006 NOSIG
OIAM 8 6.21 37/21 29.41
OIAM 111800Z 28008KT CAVOK 37/21 Q0996